Time;durP1;ratioP1;P1;durP2;ratioP2;P2;SDS_P1;SDS_P2;PMS_P1;PMS_P2;Temp;Humidity;BMP_temperature;BMP_pressure;BME280_temperature;BME280_humidity;BME280_pressure;Samples;Min_cycle;Max_cycle;Signal;HPM_P1;HPM_P2
2024/01/10 00:02:07;;;;;;;6.72;3.05;;;8.70;88.50;;;;;;7392657;19;19917;-74
2024/01/10 00:04:32;;;;;;;7.72;2.78;;;8.70;88.20;;;;;;7388005;19;19935;-74
2024/01/10 00:06:58;;;;;;;6.65;2.90;;;8.70;88.00;;;;;;7389551;19;20080;-73
2024/01/10 00:09:24;;;;;;;6.85;3.05;;;8.70;87.60;;;;;;7379607;19;20001;-74
2024/01/10 00:11:49;;;;;;;7.03;2.95;;;8.70;87.60;;;;;;7398736;19;19921;-74
2024/01/10 00:14:16;;;;;;;7.70;2.95;;;8.60;87.10;;;;;;7388458;19;19910;-75
2024/01/10 00:16:42;;;;;;;8.07;3.58;;;8.60;86.90;;;;;;7390350;19;20613;-73
2024/01/10 00:19:07;;;;;;;12.00;3.42;;;8.60;86.60;;;;;;7395179;19;19922;-74
2024/01/10 00:21:35;;;;;;;10.35;3.35;;;8.60;86.20;;;;;;7399659;19;19919;-74
2024/01/10 00:24:00;;;;;;;7.68;3.47;;;8.70;85.60;;;;;;7402453;19;19910;-74
2024/01/10 00:26:26;;;;;;;10.18;3.60;;;8.60;84.80;;;;;;7393854;19;19923;-75
2024/01/10 00:28:52;;;;;;;8.23;3.15;;;8.60;84.50;;;;;;7389763;19;19918;-74
2024/01/10 00:31:18;;;;;;;9.60;3.28;;;8.60;84.40;;;;;;7398756;19;19922;-74
2024/01/10 00:33:43;;;;;;;9.07;3.60;;;8.60;83.80;;;;;;7401000;19;19915;-74
2024/01/10 00:36:09;;;;;;;7.90;3.42;;;8.50;83.90;;;;;;7383315;19;19934;-74
2024/01/10 00:38:36;;;;;;;7.88;4.03;;;8.50;84.20;;;;;;7394048;19;19918;-73
2024/01/10 00:41:02;;;;;;;7.95;3.35;;;8.50;84.10;;;;;;7399848;19;20336;-74
2024/01/10 00:43:28;;;;;;;7.40;3.55;;;8.40;84.40;;;;;;7400984;19;19915;-74
2024/01/10 00:45:54;;;;;;;13.05;3.70;;;8.30;84.60;;;;;;7376114;19;19925;-75
2024/01/10 00:48:20;;;;;;;10.02;4.78;;;8.30;85.00;;;;;;7398332;19;19968;-74
2024/01/10 00:50:46;;;;;;;11.07;4.25;;;8.30;85.10;;;;;;7399195;19;20310;-74
2024/01/10 00:53:12;;;;;;;9.32;3.67;;;8.30;85.50;;;;;;7399648;19;19921;-73
2024/01/10 00:55:37;;;;;;;8.35;3.60;;;8.30;85.50;;;;;;7402306;19;20023;-73
2024/01/10 00:58:03;;;;;;;7.85;3.13;;;8.30;85.60;;;;;;7396198;19;20332;-74
2024/01/10 01:00:29;;;;;;;8.50;3.92;;;8.40;85.80;;;;;;7397897;19;20304;-74
2024/01/10 01:02:55;;;;;;;6.70;3.03;;;8.40;85.40;;;;;;7399642;19;19922;-73
2024/01/10 01:05:20;;;;;;;7.60;2.72;;;8.40;85.30;;;;;;7400846;19;19923;-73
2024/01/10 01:07:46;;;;;;;10.25;3.35;;;8.50;85.10;;;;;;7404544;19;19907;-73
2024/01/10 01:10:12;;;;;;;8.13;2.50;;;8.60;84.90;;;;;;7400295;19;19919;-74
2024/01/10 01:12:39;;;;;;;9.07;2.88;;;8.60;84.20;;;;;;7401728;19;19923;-73
2024/01/10 01:15:05;;;;;;;5.88;2.88;;;8.70;83.70;;;;;;7401922;19;20248;-73
2024/01/10 01:17:31;;;;;;;9.52;2.85;;;8.70;83.20;;;;;;7402665;19;19935;-73
2024/01/10 01:19:56;;;;;;;7.40;2.95;;;8.70;83.00;;;;;;7403067;19;19922;-74
2024/01/10 01:22:22;;;;;;;6.97;2.60;;;8.80;82.80;;;;;;7399842;19;19952;-73
2024/01/10 01:24:48;;;;;;;8.18;2.67;;;8.80;82.20;;;;;;7400942;19;19935;-74
2024/01/10 01:27:14;;;;;;;6.38;2.70;;;8.90;81.80;;;;;;7397598;19;19914;-73
2024/01/10 01:29:39;;;;;;;6.97;2.85;;;8.90;82.00;;;;;;7401207;19;19958;-72
2024/01/10 01:32:05;;;;;;;7.65;2.90;;;8.90;81.80;;;;;;7399994;19;19917;-74
2024/01/10 01:34:31;;;;;;;7.32;3.00;;;8.90;81.60;;;;;;7399827;19;19937;-73
2024/01/10 01:36:57;;;;;;;7.38;2.70;;;8.90;81.10;;;;;;7402153;19;20318;-74
2024/01/10 01:39:22;;;;;;;7.13;2.83;;;8.90;80.70;;;;;;7400443;19;19951;-73
2024/01/10 01:41:48;;;;;;;6.40;3.17;;;8.90;80.80;;;;;;7400440;19;19936;-73
2024/01/10 01:44:14;;;;;;;8.02;2.90;;;8.90;81.40;;;;;;7380006;19;19922;-74
2024/01/10 01:46:42;;;;;;;7.63;2.45;;;8.90;81.60;;;;;;7400632;19;19921;-74
2024/01/10 01:49:10;;;;;;;8.77;2.72;;;8.90;81.80;;;;;;7393987;19;19922;-73
2024/01/10 01:51:40;;;;;;;7.65;2.53;;;8.90;82.20;;;;;;7395317;19;19917;-73
2024/01/10 01:54:08;;;;;;;8.18;2.22;;;9.00;82.80;;;;;;7400850;19;19919;-74
2024/01/10 01:56:36;;;;;;;7.40;2.70;;;9.00;83.10;;;;;;7380023;19;19922;-73
2024/01/10 01:59:04;;;;;;;5.18;2.17;;;9.00;83.70;;;;;;7401427;19;20255;-74
2024/01/10 02:01:30;;;;;;;6.82;2.10;;;9.00;83.90;;;;;;7402450;19;19918;-73
2024/01/10 02:03:56;;;;;;;6.20;2.67;;;9.10;84.00;;;;;;7399237;19;19925;-73
2024/01/10 02:06:22;;;;;;;6.20;2.55;;;9.10;83.80;;;;;;7399248;19;19930;-72
2024/01/10 02:08:48;;;;;;;8.15;2.40;;;9.10;83.90;;;;;;7401534;19;19927;-74
2024/01/10 02:11:13;;;;;;;7.78;2.92;;;9.10;83.90;;;;;;7398696;19;19922;-74
2024/01/10 02:13:40;;;;;;;7.63;2.33;;;9.10;84.20;;;;;;7403846;19;19943;-73
2024/01/10 02:16:07;;;;;;;7.15;2.80;;;9.10;85.00;;;;;;7397051;19;20545;-73
2024/01/10 02:18:34;;;;;;;6.75;2.30;;;9.20;85.40;;;;;;7399547;19;19923;-73
2024/01/10 02:21:01;;;;;;;4.78;2.17;;;9.20;86.10;;;;;;7402695;19;20331;-73
2024/01/10 02:23:26;;;;;;;8.13;2.47;;;9.20;86.50;;;;;;7397718;19;19935;-73
2024/01/10 02:25:52;;;;;;;8.00;3.05;;;9.20;86.20;;;;;;7400755;19;20335;-73
2024/01/10 02:28:18;;;;;;;8.98;2.60;;;9.30;86.20;;;;;;7399689;19;19918;-73
2024/01/10 02:30:44;;;;;;;8.18;2.40;;;9.30;86.40;;;;;;7401406;19;19914;-73
2024/01/10 02:33:09;;;;;;;6.63;2.20;;;9.20;86.70;;;;;;7399365;19;19930;-73
2024/01/10 02:35:35;;;;;;;7.30;2.42;;;9.30;86.80;;;;;;7398600;19;19918;-74
2024/01/10 02:38:02;;;;;;;6.18;2.30;;;9.30;86.30;;;;;;7401183;19;19923;-72
2024/01/10 02:40:28;;;;;;;7.15;2.50;;;9.30;85.70;;;;;;7397396;19;19994;-74
2024/01/10 02:42:54;;;;;;;6.57;2.45;;;9.20;85.40;;;;;;7397459;19;19923;-74
2024/01/10 02:45:20;;;;;;;7.75;2.63;;;9.20;85.40;;;;;;7397852;19;19950;-73
2024/01/10 02:47:45;;;;;;;5.97;2.70;;;9.20;85.20;;;;;;7401237;19;19985;-73
2024/01/10 02:50:11;;;;;;;7.22;2.30;;;9.10;85.10;;;;;;7398681;19;20314;-73
2024/01/10 02:52:37;;;;;;;12.55;4.47;;;9.10;84.80;;;;;;7401424;19;19930;-74
2024/01/10 02:55:03;;;;;;;7.15;3.17;;;9.10;84.60;;;;;;7397723;19;19918;-73
2024/01/10 02:57:29;;;;;;;7.28;2.88;;;9.00;84.80;;;;;;7402049;19;19978;-72
2024/01/10 02:59:55;;;;;;;8.60;3.15;;;9.10;84.40;;;;;;7399403;19;20011;-73
2024/01/10 03:02:20;;;;;;;7.70;2.90;;;9.00;84.50;;;;;;7396175;19;19919;-73
2024/01/10 03:04:47;;;;;;;10.20;3.60;;;9.10;84.30;;;;;;7399910;19;19919;-73
2024/01/10 03:07:14;;;;;;;7.88;3.75;;;9.10;83.80;;;;;;7397440;19;19921;-73
2024/01/10 03:09:40;;;;;;;7.85;2.80;;;9.00;83.10;;;;;;7400412;19;19911;-73
2024/01/10 03:12:06;;;;;;;9.20;3.13;;;9.10;83.40;;;;;;7396155;19;19942;-73
2024/01/10 03:14:34;;;;;;;6.50;2.75;;;9.10;83.50;;;;;;7398511;19;19914;-73
2024/01/10 03:17:00;;;;;;;7.30;3.17;;;9.10;83.50;;;;;;7395230;19;19914;-74
2024/01/10 03:19:25;;;;;;;7.05;3.08;;;9.10;83.50;;;;;;7398398;19;19911;-73
2024/01/10 03:21:51;;;;;;;9.00;3.03;;;9.10;83.60;;;;;;7400576;19;19911;-74
2024/01/10 03:24:17;;;;;;;8.07;2.75;;;9.00;84.70;;;;;;7396480;19;19935;-74
2024/01/10 03:26:43;;;;;;;7.03;2.75;;;9.10;84.20;;;;;;7398547;19;19927;-74
2024/01/10 03:29:09;;;;;;;7.38;2.75;;;9.10;84.00;;;;;;7397773;19;19978;-73
2024/01/10 03:31:35;;;;;;;7.00;2.67;;;9.10;83.50;;;;;;7396778;19;20344;-73
2024/01/10 03:34:00;;;;;;;7.53;2.58;;;9.10;83.40;;;;;;7400621;19;19949;-73
2024/01/10 03:36:26;;;;;;;6.72;2.75;;;9.10;83.50;;;;;;7396185;19;19926;-73
2024/01/10 03:38:52;;;;;;;7.90;2.70;;;9.10;83.30;;;;;;7399781;19;19914;-73
2024/01/10 03:41:19;;;;;;;9.02;2.55;;;9.10;83.80;;;;;;7374495;19;19915;-73
2024/01/10 03:43:45;;;;;;;8.05;2.35;;;9.10;83.90;;;;;;7397964;19;19983;-73
2024/01/10 03:46:12;;;;;;;9.07;2.95;;;9.10;83.60;;;;;;7403218;19;19918;-73
2024/01/10 03:48:47;;;;;;;8.18;2.95;;;9.10;83.30;;;;;;7406947;19;19943;-73
2024/01/10 03:51:13;;;;;;;7.28;2.50;;;9.10;83.10;;;;;;7404795;19;19919;-73
2024/01/10 03:53:39;;;;;;;7.75;2.50;;;9.00;82.80;;;;;;7403102;19;19919;-73
2024/01/10 03:56:05;;;;;;;7.65;2.60;;;9.10;82.50;;;;;;7403913;19;19925;-73
2024/01/10 03:58:31;;;;;;;9.55;2.92;;;9.10;81.70;;;;;;7405581;19;19939;-73
2024/01/10 04:00:56;;;;;;;7.30;2.90;;;9.10;80.90;;;;;;7405324;19;19923;-73
2024/01/10 04:03:22;;;;;;;6.95;2.50;;;9.10;79.60;;;;;;7403490;19;19931;-73
2024/01/10 04:05:48;;;;;;;8.65;2.88;;;9.10;79.00;;;;;;7404473;19;19911;-74
2024/01/10 04:08:13;;;;;;;9.07;2.75;;;9.10;78.60;;;;;;7403571;19;19918;-73
2024/01/10 04:10:39;;;;;;;15.43;3.00;;;9.10;78.20;;;;;;7404770;19;19925;-74
2024/01/10 04:13:05;;;;;;;5.82;2.70;;;9.20;78.10;;;;;;7404007;19;19922;-73
2024/01/10 04:15:30;;;;;;;5.35;2.97;;;9.20;78.20;;;;;;7405347;19;20011;-74
2024/01/10 04:17:56;;;;;;;6.90;2.20;;;9.20;77.80;;;;;;7401630;19;19923;-73
2024/01/10 04:20:22;;;;;;;9.27;2.72;;;9.20;77.50;;;;;;7401523;19;19922;-73
2024/01/10 04:22:47;;;;;;;5.25;2.40;;;9.20;77.70;;;;;;7401585;19;20025;-73
2024/01/10 04:25:13;;;;;;;6.78;2.38;;;9.20;77.60;;;;;;7403346;19;19998;-73
2024/01/10 04:27:40;;;;;;;5.80;2.35;;;9.20;77.10;;;;;;7404106;19;20431;-73
2024/01/10 04:30:06;;;;;;;6.50;2.72;;;9.20;76.60;;;;;;7399915;19;19918;-73
2024/01/10 04:32:32;;;;;;;7.00;2.70;;;9.20;76.50;;;;;;7400624;19;19921;-73
2024/01/10 04:34:58;;;;;;;9.80;2.78;;;9.20;75.60;;;;;;7402874;19;19926;-73
2024/01/10 04:37:26;;;;;;;6.78;2.90;;;9.20;74.90;;;;;;7402305;19;19952;-73
2024/01/10 04:39:51;;;;;;;9.80;3.92;;;9.20;74.70;;;;;;7403501;19;19922;-73
2024/01/10 04:42:17;;;;;;;8.85;2.75;;;9.20;74.80;;;;;;7399151;19;19929;-73
2024/01/10 04:44:43;;;;;;;8.23;3.05;;;9.20;74.70;;;;;;7404571;19;19922;-74
2024/01/10 04:47:09;;;;;;;9.30;3.15;;;9.10;74.20;;;;;;7399446;19;19940;-72
2024/01/10 04:49:35;;;;;;;8.88;3.13;;;9.10;73.50;;;;;;7404237;19;19937;-74
2024/01/10 04:52:01;;;;;;;6.50;2.97;;;9.10;72.50;;;;;;7402158;19;19922;-73
2024/01/10 04:54:27;;;;;;;7.18;2.70;;;9.10;72.30;;;;;;7403000;19;20466;-72
2024/01/10 04:56:52;;;;;;;9.85;3.20;;;9.10;71.90;;;;;;7401913;19;19918;-74
2024/01/10 04:59:18;;;;;;;5.97;2.67;;;9.10;71.50;;;;;;7401696;19;19926;-73
2024/01/10 05:01:44;;;;;;;8.38;3.00;;;9.10;71.40;;;;;;7402453;19;19923;-73
2024/01/10 05:04:10;;;;;;;6.88;3.65;;;9.10;71.00;;;;;;7402695;19;19984;-73
2024/01/10 05:06:36;;;;;;;12.93;3.40;;;9.10;71.00;;;;;;7402822;19;19914;-74
2024/01/10 05:09:02;;;;;;;9.57;3.35;;;9.10;70.30;;;;;;7402173;19;19939;-73
2024/01/10 05:11:28;;;;;;;8.80;3.17;;;9.10;70.20;;;;;;7402456;19;20016;-74
2024/01/10 05:13:54;;;;;;;10.23;2.92;;;9.20;70.60;;;;;;7400913;19;20359;-73
2024/01/10 05:16:20;;;;;;;7.03;2.90;;;9.20;70.40;;;;;;7404420;19;19930;-73
2024/01/10 05:18:46;;;;;;;8.73;3.25;;;9.20;70.00;;;;;;7405028;19;20753;-73
2024/01/10 05:21:12;;;;;;;7.18;2.75;;;9.20;69.80;;;;;;7379491;19;19930;-73
2024/01/10 05:23:40;;;;;;;8.98;3.95;;;9.20;69.80;;;;;;7402989;19;20516;-73
2024/01/10 05:26:06;;;;;;;8.98;3.22;;;9.30;69.40;;;;;;7400345;19;19938;-73
2024/01/10 05:28:32;;;;;;;9.05;3.00;;;9.30;68.80;;;;;;7400408;19;19974;-74
2024/01/10 05:31:01;;;;;;;10.57;3.28;;;9.30;68.20;;;;;;7404364;19;19915;-74
2024/01/10 05:33:26;;;;;;;7.57;3.72;;;9.30;68.30;;;;;;7402811;19;19926;-73
2024/01/10 05:35:52;;;;;;;6.85;3.20;;;9.30;68.00;;;;;;7402507;19;19991;-73
2024/01/10 05:38:18;;;;;;;8.15;3.28;;;9.30;67.80;;;;;;7399501;19;19918;-74
2024/01/10 05:40:44;;;;;;;7.43;3.70;;;9.30;67.80;;;;;;7400646;19;20249;-73
2024/01/10 05:43:12;;;;;;;10.60;3.55;;;9.20;68.00;;;;;;7399411;19;19918;-73
2024/01/10 05:45:38;;;;;;;9.95;3.85;;;9.20;68.40;;;;;;7399589;19;19929;-73
2024/01/10 05:48:04;;;;;;;8.38;3.25;;;9.20;68.00;;;;;;7400257;19;19927;-74
2024/01/10 05:50:30;;;;;;;9.23;3.60;;;9.20;67.50;;;;;;7401839;19;19919;-73
2024/01/10 05:52:56;;;;;;;8.63;3.42;;;9.20;67.50;;;;;;7402120;19;20659;-74
2024/01/10 05:55:23;;;;;;;10.77;4.13;;;9.20;67.40;;;;;;7378614;19;19938;-74
2024/01/10 05:57:49;;;;;;;7.93;3.45;;;9.20;67.00;;;;;;7381620;19;19915;-74
2024/01/10 06:00:16;;;;;;;7.85;3.78;;;9.20;66.60;;;;;;7401552;19;19918;-74
2024/01/10 06:02:42;;;;;;;10.40;4.57;;;9.20;66.10;;;;;;7399861;19;19986;-74
2024/01/10 06:05:09;;;;;;;8.95;4.30;;;9.20;65.70;;;;;;7401370;19;20038;-73
2024/01/10 06:07:36;;;;;;;10.07;3.92;;;9.20;65.10;;;;;;7398444;19;19944;-73
2024/01/10 06:10:02;;;;;;;9.82;3.90;;;9.20;64.90;;;;;;7403062;19;20252;-73
2024/01/10 06:12:28;;;;;;;7.93;3.90;;;9.20;64.80;;;;;;7398998;19;19926;-74
2024/01/10 06:14:54;;;;;;;8.73;3.80;;;9.20;65.40;;;;;;7403519;19;19918;-74
2024/01/10 06:17:20;;;;;;;7.57;3.63;;;9.20;65.70;;;;;;7399846;19;19918;-72
2024/01/10 06:19:46;;;;;;;10.45;4.28;;;9.30;66.20;;;;;;7404942;19;20325;-73
2024/01/10 06:22:12;;;;;;;11.50;3.90;;;9.30;66.80;;;;;;7399957;19;19923;-73
2024/01/10 06:24:38;;;;;;;7.53;3.65;;;9.30;67.50;;;;;;7398898;19;20014;-73
2024/01/10 06:27:05;;;;;;;11.65;4.63;;;9.30;67.50;;;;;;7397863;19;19919;-73
2024/01/10 06:29:31;;;;;;;11.00;4.15;;;9.30;68.60;;;;;;7377339;19;19922;-73
2024/01/10 06:31:57;;;;;;;8.65;3.85;;;9.20;71.40;;;;;;7400527;19;19942;-72
2024/01/10 06:34:24;;;;;;;10.05;5.38;;;9.00;73.80;;;;;;7400644;19;19939;-73
2024/01/10 06:36:50;;;;;;;10.10;3.95;;;8.90;76.90;;;;;;7400102;19;19918;-73
2024/01/10 06:39:16;;;;;;;7.45;4.03;;;8.80;77.20;;;;;;7398380;19;19934;-74
2024/01/10 06:41:43;;;;;;;8.07;3.83;;;8.70;80.50;;;;;;7396365;19;19922;-75
2024/01/10 06:44:09;;;;;;;7.90;4.25;;;8.60;82.50;;;;;;7399261;19;19922;-73
2024/01/10 06:46:36;;;;;;;8.48;4.15;;;8.60;85.00;;;;;;7399364;19;19906;-73
2024/01/10 06:49:01;;;;;;;10.48;5.18;;;8.50;85.40;;;;;;7400497;19;19914;-73
2024/01/10 06:51:27;;;;;;;8.13;3.72;;;8.50;86.90;;;;;;7398878;19;19915;-74
2024/01/10 06:53:53;;;;;;;10.10;4.53;;;8.40;88.70;;;;;;7400702;19;19950;-74
2024/01/10 06:56:19;;;;;;;10.70;4.70;;;8.40;90.80;;;;;;7395703;19;19923;-74
2024/01/10 06:58:44;;;;;;;9.63;4.45;;;8.30;91.60;;;;;;7400305;19;19942;-74
2024/01/10 07:01:13;;;;;;;10.50;4.60;;;8.40;93.30;;;;;;7376771;19;19919;-74
2024/01/10 07:03:40;;;;;;;10.35;4.88;;;8.30;94.70;;;;;;7397743;19;19922;-74
2024/01/10 07:06:06;;;;;;;9.07;4.38;;;8.20;96.00;;;;;;7397795;19;19936;-74
2024/01/10 07:08:31;;;;;;;10.85;5.03;;;8.20;97.10;;;;;;7400351;19;20351;-75
2024/01/10 07:10:57;;;;;;;18.63;9.10;;;8.20;98.20;;;;;;7399635;19;19919;-74
2024/01/10 07:13:24;;;;;;;11.25;5.03;;;8.20;98.70;;;;;;7399942;19;20658;-74
2024/01/10 07:15:52;;;;;;;13.70;4.70;;;8.30;99.50;;;;;;7398711;19;19998;-74
2024/01/10 07:18:18;;;;;;;9.18;4.55;;;8.30;99.90;;;;;;7399711;19;20573;-74
2024/01/10 07:20:44;;;;;;;8.48;4.53;;;8.30;99.90;;;;;;7406437;19;19906;-73
2024/01/10 07:23:10;;;;;;;13.43;5.00;;;8.30;99.90;;;;;;7403965;19;19918;-73
2024/01/10 07:25:37;;;;;;;10.35;4.43;;;8.30;99.90;;;;;;7405818;19;19915;-73
2024/01/10 07:28:03;;;;;;;12.02;4.70;;;8.30;99.90;;;;;;7406087;19;19958;-75
2024/01/10 07:30:32;;;;;;;9.27;4.57;;;8.40;99.90;;;;;;7406664;19;19931;-74
2024/01/10 07:32:59;;;;;;;10.85;4.90;;;8.30;99.90;;;;;;7403859;19;19919;-74
2024/01/10 07:35:26;;;;;;;8.40;4.50;;;8.30;99.90;;;;;;7402673;19;19926;-73
2024/01/10 07:37:52;;;;;;;10.13;4.45;;;8.30;99.90;;;;;;7404358;19;19922;-73
2024/01/10 07:40:18;;;;;;;9.65;4.70;;;8.30;99.90;;;;;;7403171;19;19955;-74
2024/01/10 07:42:45;;;;;;;8.90;4.55;;;8.30;99.90;;;;;;7403402;19;19926;-74
2024/01/10 07:45:11;;;;;;;9.75;4.22;;;8.40;99.90;;;;;;7401650;19;19978;-74
2024/01/10 07:47:38;;;;;;;14.95;5.35;;;8.40;99.90;;;;;;7404829;19;19914;-73
2024/01/10 07:50:05;;;;;;;11.38;4.40;;;8.40;99.90;;;;;;7400927;19;19911;-73
2024/01/10 07:52:32;;;;;;;11.00;4.95;;;8.50;99.90;;;;;;7405122;19;19927;-73
2024/01/10 07:54:57;;;;;;;11.55;4.57;;;8.40;99.90;;;;;;7405578;19;20244;-74
2024/01/10 07:57:23;;;;;;;9.10;4.10;;;8.50;99.90;;;;;;7402946;19;19963;-74
2024/01/10 07:59:49;;;;;;;8.80;4.28;;;8.50;99.90;;;;;;7402954;19;19915;-74
2024/01/10 08:02:15;;;;;;;10.85;4.22;;;8.50;99.90;;;;;;7401911;19;19922;-74
2024/01/10 08:04:41;;;;;;;9.82;4.28;;;8.60;99.90;;;;;;7405285;19;19946;-74
2024/01/10 08:07:06;;;;;;;9.63;4.38;;;8.60;99.90;;;;;;7402742;19;20247;-74
2024/01/10 08:09:32;;;;;;;8.13;3.55;;;8.70;99.90;;;;;;7405208;19;19914;-73
2024/01/10 08:11:58;;;;;;;11.68;4.50;;;8.80;99.90;;;;;;7401671;19;19919;-75
2024/01/10 08:14:24;;;;;;;9.23;3.97;;;8.80;99.90;;;;;;7403927;19;20324;-74
2024/01/10 08:16:53;;;;;;;9.05;4.28;;;8.70;99.90;;;;;;7402264;19;19941;-74
2024/01/10 08:19:18;;;;;;;11.25;4.05;;;8.80;99.90;;;;;;7403046;19;19926;-74
2024/01/10 08:21:44;;;;;;;9.40;4.38;;;8.80;99.90;;;;;;7402526;19;19919;-75
2024/01/10 08:24:11;;;;;;;15.02;4.32;;;8.90;99.90;;;;;;7400762;19;19919;-73
2024/01/10 08:26:37;;;;;;;11.35;4.55;;;8.90;99.90;;;;;;7397859;19;19918;-73
2024/01/10 08:29:03;;;;;;;8.75;4.20;;;8.90;99.90;;;;;;7402469;19;20329;-73
2024/01/10 08:31:29;;;;;;;10.75;4.85;;;9.00;99.90;;;;;;7401209;19;19938;-73
2024/01/10 08:33:56;;;;;;;9.10;4.22;;;9.00;99.90;;;;;;7403226;19;20006;-73
2024/01/10 08:36:24;;;;;;;10.15;4.35;;;9.00;99.90;;;;;;7400536;19;19926;-74
2024/01/10 08:38:51;;;;;;;18.85;4.90;;;9.00;99.90;;;;;;7400710;19;19911;-73
2024/01/10 08:41:17;;;;;;;11.05;4.35;;;8.90;99.90;;;;;;7399546;19;19926;-74
2024/01/10 08:43:42;;;;;;;8.43;4.15;;;9.00;99.90;;;;;;7400711;19;19919;-73
2024/01/10 08:46:09;;;;;;;10.38;5.28;;;9.00;99.90;;;;;;7399407;19;19928;-74
2024/01/10 08:48:36;;;;;;;8.80;4.53;;;9.00;99.90;;;;;;7402458;19;19938;-74
2024/01/10 08:51:02;;;;;;;9.48;4.72;;;9.00;99.90;;;;;;7399114;19;19932;-73
2024/01/10 08:53:28;;;;;;;10.30;4.35;;;9.10;99.90;;;;;;7402267;19;19919;-73
2024/01/10 08:55:54;;;;;;;12.25;5.45;;;9.10;99.90;;;;;;7398841;19;19919;-74
2024/01/10 08:58:21;;;;;;;11.52;4.60;;;9.20;99.90;;;;;;7357508;19;21127;-74
2024/01/10 09:00:47;;;;;;;9.50;4.47;;;9.30;99.90;;;;;;7385093;19;19914;-74
2024/01/10 09:03:13;;;;;;;10.60;4.32;;;9.40;99.90;;;;;;7396191;19;19925;-74
2024/01/10 09:05:39;;;;;;;10.63;4.28;;;9.50;99.90;;;;;;7388059;19;20298;-74
2024/01/10 09:08:05;;;;;;;9.85;5.03;;;9.60;99.60;;;;;;7396509;19;19918;-74
2024/01/10 09:10:31;;;;;;;10.60;4.20;;;9.70;99.00;;;;;;7402548;19;19945;-75
2024/01/10 09:12:59;;;;;;;7.72;3.85;;;9.70;97.80;;;;;;7400118;19;19929;-73
2024/01/10 09:15:24;;;;;;;10.25;4.32;;;9.70;96.40;;;;;;7379237;19;20348;-75
2024/01/10 09:17:52;;;;;;;12.32;4.20;;;9.70;96.30;;;;;;7401257;19;19918;-75
2024/01/10 09:20:17;;;;;;;;;;;9.70;95.30;;;;;;7377187;19;19946;-73
2024/01/10 09:22:43;;;;;;;10.02;4.07;;;9.80;93.90;;;;;;7382752;19;19914;-73
2024/01/10 09:25:12;;;;;;;8.30;3.70;;;9.80;94.50;;;;;;7390865;19;20467;-74
2024/01/10 09:27:40;;;;;;;8.75;4.28;;;9.90;94.20;;;;;;7392654;19;19999;-73
2024/01/10 09:30:09;;;;;;;7.35;3.92;;;9.90;91.90;;;;;;7379969;19;19919;-74
2024/01/10 09:32:36;;;;;;;9.60;4.45;;;10.00;92.40;;;;;;7376773;19;19982;-73
2024/01/10 09:35:02;;;;;;;12.18;4.38;;;10.00;92.20;;;;;;7381790;19;19977;-74
2024/01/10 09:37:28;;;;;;;10.70;5.10;;;10.10;93.00;;;;;;7384975;19;20600;-74
2024/01/10 09:39:54;;;;;;;10.00;4.43;;;10.10;91.90;;;;;;7395300;19;19929;-74
2024/01/10 09:42:25;;;;;;;12.00;4.85;;;10.10;91.70;;;;;;7393370;19;19914;-75
2024/01/10 09:44:51;;;;;;;10.85;4.97;;;10.10;90.70;;;;;;7383548;19;19982;-74
2024/01/10 09:47:19;;;;;;;11.93;4.65;;;10.20;90.90;;;;;;7390109;19;19938;-74
2024/01/10 09:49:46;;;;;;;11.80;4.88;;;10.20;90.50;;;;;;7375226;19;19997;-74
2024/01/10 09:52:27;;;;;;;10.48;4.43;;;10.20;89.90;;;;;;7363206;19;20389;-74
2024/01/10 09:54:56;;;;;;;11.05;5.50;;;10.10;88.20;;;;;;7373521;19;19938;-74
2024/01/10 09:57:23;;;;;;;10.90;4.80;;;10.20;88.00;;;;;;7372348;19;19911;-73
2024/01/10 09:59:51;;;;;;;12.98;5.65;;;10.20;88.50;;;;;;7392271;19;19918;-74
2024/01/10 10:02:42;;;;;;;13.95;5.57;;;10.20;87.80;;;;;;7407081;19;20370;-74
2024/01/10 10:05:16;;;;;;;10.75;5.80;;;10.20;87.70;;;;;;7420687;19;19939;-74
2024/01/10 10:07:49;;;;;;;13.77;6.50;;;10.20;86.80;;;;;;7423575;19;20063;-74
2024/01/10 10:10:16;;;;;;;14.32;5.97;;;10.20;85.20;;;;;;7424502;19;19910;-73
2024/01/10 10:12:48;;;;;;;14.25;5.97;;;10.20;85.40;;;;;;7424503;19;19922;-75
2024/01/10 10:15:15;;;;;;;12.25;5.63;;;10.20;85.50;;;;;;7422417;19;19922;-74
2024/01/10 10:19:30;;;;;;;16.73;5.72;;;10.30;83.90;;;;;;7413436;19;20804;-74
2024/01/10 10:22:08;;;;;;;12.48;5.82;;;10.30;84.00;;;;;;7433489;19;19911;-74
2024/01/10 10:24:34;;;;;;;12.82;5.45;;;10.30;82.80;;;;;;7425950;19;19922;-72
2024/01/10 10:27:00;;;;;;;21.15;6.20;;;10.40;82.60;;;;;;7427251;19;19934;-73
2024/01/10 10:29:26;;;;;;;12.63;5.22;;;10.40;82.80;;;;;;7424278;19;19927;-72
2024/01/10 10:31:51;;;;;;;8.88;5.10;;;10.50;80.20;;;;;;7426351;19;20335;-74
2024/01/10 10:34:22;;;;;;;11.80;5.45;;;10.50;81.90;;;;;;7429642;19;19918;-74
2024/01/10 10:36:49;;;;;;;11.48;5.50;;;10.60;82.30;;;;;;7415659;19;19978;-73
2024/01/10 10:39:17;;;;;;;;;;;10.80;82.40;;;;;;7430940;19;20340;-74
2024/01/10 10:41:49;;;;;;;13.25;5.13;;;11.00;81.50;;;;;;7418204;19;20341;-75
2024/01/10 10:44:22;;;;;;;14.25;5.90;;;11.10;79.20;;;;;;7426383;19;19922;-75
2024/01/10 10:46:52;;;;;;;13.68;6.03;;;11.20;77.80;;;;;;7429821;19;19915;-72
2024/01/10 10:49:23;;;;;;;13.23;5.68;;;11.30;76.00;;;;;;7435119;19;19990;-73
2024/01/10 10:51:50;;;;;;;12.65;5.80;;;11.30;75.70;;;;;;7419582;19;20585;-74
2024/01/10 10:54:18;;;;;;;12.18;5.10;;;11.40;75.90;;;;;;7412138;19;19922;-73
2024/01/10 10:56:45;;;;;;;10.60;5.30;;;11.50;74.20;;;;;;7420544;19;19933;-72
2024/01/10 10:59:13;;;;;;;9.63;4.75;;;11.40;73.80;;;;;;7423759;19;19997;-74
2024/01/10 11:01:40;;;;;;;11.50;5.43;;;11.50;73.30;;;;;;7419658;19;19918;-74
2024/01/10 11:04:05;;;;;;;;;;;11.50;73.20;;;;;;7429172;19;19922;-73
2024/01/10 11:06:32;;;;;;;8.40;4.50;;;11.50;71.70;;;;;;7420472;19;20570;-74
2024/01/10 11:09:06;;;;;;;11.57;5.68;;;11.50;71.20;;;;;;7428413;19;19917;-74
2024/01/10 11:12:10;;;;;;;10.10;5.45;;;11.50;70.40;;;;;;7424113;19;19928;-74
2024/01/10 11:14:38;;;;;;;;;;;11.50;69.30;;;;;;7425658;19;19939;-73
2024/01/10 11:17:17;;;;;;;9.57;5.18;;;11.60;69.90;;;;;;7423852;19;19922;-75
2024/01/10 11:20:03;;;;;;;12.20;5.10;;;11.60;68.80;;;;;;7432114;19;19915;-74
2024/01/10 11:22:32;;;;;;;15.07;6.45;;;11.70;68.50;;;;;;7428298;19;19918;-73
2024/01/10 11:24:58;;;;;;;13.32;5.22;;;11.80;67.50;;;;;;7430225;19;19914;-73
2024/01/10 11:27:26;;;;;;;12.00;5.55;;;11.90;67.30;;;;;;7422049;19;19946;-73
2024/01/10 11:29:52;;;;;;;14.48;5.18;;;11.90;67.30;;;;;;7409024;19;19982;-74
2024/01/10 11:32:25;;;;;;;10.20;5.10;;;11.90;67.10;;;;;;7395516;19;19923;-73
2024/01/10 11:34:55;;;;;;;10.68;4.70;;;11.90;68.40;;;;;;7376267;19;19918;-74
2024/01/10 11:37:21;;;;;;;10.63;4.60;;;11.90;68.70;;;;;;7400519;19;19918;-73
2024/01/10 11:39:46;;;;;;;10.18;4.63;;;11.90;69.80;;;;;;7397736;19;20404;-74
2024/01/10 11:42:22;;;;;;;10.48;5.00;;;12.00;69.90;;;;;;7401391;19;19919;-73
2024/01/10 11:44:52;;;;;;;11.10;3.70;;;12.00;70.00;;;;;;7394854;19;19919;-74
2024/01/10 11:47:19;;;;;;;10.27;4.22;;;12.10;70.40;;;;;;7388989;19;19986;-73
2024/01/10 11:49:55;;;;;;;;;;;12.10;70.40;;;;;;7400454;19;20249;-74
2024/01/10 11:52:23;;;;;;;11.82;4.20;;;12.00;71.10;;;;;;7400658;19;19961;-74
2024/01/10 11:54:50;;;;;;;9.77;3.65;;;11.80;71.90;;;;;;7397517;19;19914;-74
2024/01/10 11:57:18;;;;;;;;;;;11.80;72.70;;;;;;7403611;19;19918;-73
2024/01/10 11:59:45;;;;;;;11.75;4.35;;;11.70;73.40;;;;;;7392769;19;20511;-73
2024/01/10 12:02:12;;;;;;;7.47;3.80;;;11.60;74.40;;;;;;7384498;19;20324;-73
2024/01/10 12:04:39;;;;;;;9.23;3.58;;;11.40;75.90;;;;;;7396890;19;19926;-73
2024/01/10 12:07:07;;;;;;;10.73;4.28;;;11.40;77.20;;;;;;7385951;19;20001;-74
2024/01/10 12:09:36;;;;;;;7.22;3.92;;;11.50;77.40;;;;;;7395346;19;19922;-74
2024/01/10 12:12:03;;;;;;;9.48;4.80;;;11.50;77.30;;;;;;7403247;19;19943;-73
2024/01/10 12:14:30;;;;;;;11.80;4.15;;;11.60;76.00;;;;;;7401507;19;19918;-73
2024/01/10 12:16:56;;;;;;;9.55;4.40;;;11.80;75.10;;;;;;7395237;19;19958;-73
2024/01/10 12:19:22;;;;;;;8.85;4.78;;;12.10;73.40;;;;;;7396466;19;22526;-73
2024/01/10 12:21:52;;;;;;;13.10;4.88;;;12.50;69.10;;;;;;7405693;19;19926;-72
2024/01/10 12:24:18;;;;;;;9.23;4.70;;;13.10;63.20;;;;;;7403916;19;19919;-73
2024/01/10 12:26:48;;;;;;;9.30;4.57;;;13.60;60.10;;;;;;7400423;19;19925;-73
2024/01/10 12:29:17;;;;;;;6.65;3.55;;;14.70;54.80;;;;;;7392261;19;19915;-73
2024/01/10 12:31:45;;;;;;;10.27;3.75;;;15.70;46.80;;;;;;7395167;19;19914;-74
2024/01/10 12:34:12;;;;;;;8.15;4.18;;;15.50;44.40;;;;;;7400626;19;19918;-74
2024/01/10 12:36:38;;;;;;;9.02;3.25;;;14.60;46.90;;;;;;7403071;19;19930;-73
2024/01/10 12:39:06;;;;;;;8.10;3.35;;;14.10;49.40;;;;;;7395222;19;19918;-73
2024/01/10 12:41:34;;;;;;;8.18;4.10;;;13.90;52.00;;;;;;7387897;19;19974;-74
2024/01/10 12:44:03;;;;;;;9.98;4.05;;;13.80;52.30;;;;;;7400328;19;19926;-72
2024/01/10 12:46:30;;;;;;;6.15;3.33;;;13.40;54.30;;;;;;7401508;19;19918;-73
2024/01/10 12:49:04;;;;;;;8.20;4.13;;;13.20;57.70;;;;;;7366482;19;19919;-73
2024/01/10 12:51:31;;;;;;;9.90;4.78;;;13.10;58.30;;;;;;7398010;19;20458;-72
2024/01/10 12:54:01;;;;;;;11.38;5.95;;;13.10;57.50;;;;;;7403390;19;19990;-74